• Join FlightAware (Why Join?)
  • Login
  • US Flag 
07:41PM EDT


 

Airport Tracker/Info


-or-


 

Live Flight TrackerFlight Track Log ✈ AWE3417 ✈ 13-May-2013 ✈ KMHT - KDCA

Flight Track Log - Related Links

Times and Time Zones

All times are in EDT time to prevent confusion due to time zone crossing. See the AWE3417 flight status page for this flight to view local times or setup timezone preferences in your user account.

Time Position Orientation Groundspeed Altitude Reporting Facility
EDT Latitude Longitude Course Direction KTS MPH feet Rate Location/Type
05:06PM 42.9500 -71.4333 202° Southwest 149 171 1,300  Level KA90
05:07PM 43.0000 -71.4667 334° Northwest 199 229 2,800 2,640 Climbing KA90
05:09PM 43.0530 -71.0911 65° Northeast  Level FlightAware Approximate
05:10PM 43.0750 -70.9708 132° Southeast  Level FlightAware Approximate
05:10PM 43.0569 -71.2608 69° East 285 328 10,400  Level Boston Center
05:11PM 43.0018 -70.8851 144° Southeast  Level FlightAware Approximate
05:11PM 43.0619 -71.1272 87° East 308 354 13,500  Level Boston Center
05:12PM 42.9147 -70.9048 202° Southwest  Level FlightAware Approximate
05:12PM 43.0772 -71.0161 79° East 314 361 16,000  Level Boston Center
05:13PM 43.0217 -70.9150 127° Southeast 289 333 18,700 2,580 Climbing Boston Center
05:14PM 42.9506 -70.8942 168° South 258 297 21,200 2,520 Climbing Boston Center
05:15PM 42.8761 -70.9356 202° Southwest 235 270 23,800 2,340 Climbing Boston Center
05:16PM 42.8119 -70.9656 199° South 257 296 25,900 2,040 Climbing Boston Center
05:17PM 42.7394 -71.0039 201° Southwest 270 311 27,900 1,020 Climbing Boston Center
05:18PM 42.6689 -71.0367 199° South 270 311 28,000  Climbing Boston Center
05:19PM 42.6006 -71.0722 201° Southwest 270 311 28,000  Level Boston Center
05:20PM 42.5300 -71.1075 200° South 270 311 28,000  Level Boston Center
05:21PM 42.4597 -71.1428 200° South 270 311 28,000  Level Boston Center
05:22PM 42.4083 -71.2086 223° Southwest 265 305 28,000  Level Boston Center
05:23PM 42.3781 -71.3047 247° West 259 298 28,000  Level Boston Center
05:24PM 42.3478 -71.4008 247° West 272 313 28,000  Level Boston Center
05:25PM 42.3172 -71.4994 247° West 283 326 28,000  Level Boston Center
05:26PM 42.2806 -71.6067 245° Southwest 283 326 28,000  Level Boston Center
05:27PM 42.2500 -71.7081 248° West 288 331 28,000  Level Boston Center
05:28PM 42.2233 -71.7869 245° Southwest 288 331 28,000  Level Boston Center
05:29PM 42.1886 -71.9050 248° West 293 337 28,000  Level Boston Center
05:30PM 42.1556 -71.9781 239° Southwest 293 337 28,000  Level Boston Center
05:31PM 42.0956 -72.0961 236° Southwest 305 351 28,000  Level Boston Center
05:32PM 42.0436 -72.1914 234° Southwest 316 364 28,000  Level Boston Center
05:33PM 41.9919 -72.2892 235° Southwest 321 369 28,000  Level Boston Center
05:34PM 41.9397 -72.3842 234° Southwest 321 369 28,000  Level Boston Center
05:35PM 41.8981 -72.4625 234° Southwest 321 369 28,000  Level Boston Center
05:36PM 41.8333 -72.5794 233° Southwest 326 375 28,000  Level Boston Center
05:37PM 41.7811 -72.6767 234° Southwest 326 375 28,000  Level Boston Center
05:38PM 41.7350 -72.7628 234° Southwest 326 375 28,000  Level Boston Center
05:39PM 41.6806 -72.8569 232° Southwest 326 375 28,000  Level Boston Center
05:40PM 41.6281 -72.9567 235° Southwest 326 375 28,000  Level Boston Center
05:41PM 41.5756 -73.0533 234° Southwest 326 375 28,000  Level Boston Center
05:42PM 41.5081 -73.1747 233° Southwest 326 375 28,000  Level Boston Center
05:44PM 41.4103 -73.3522 234° Southwest 317 365 28,000  Level New York Center
05:45PM 41.3561 -73.4522 234° Southwest 317 365 28,000  Level New York Center
05:46PM 41.2997 -73.5522 233° Southwest 328 377 28,000  Level New York Center
05:47PM 41.2453 -73.6492 233° Southwest 334 384 28,000  Level New York Center
05:48PM 41.1867 -73.7433 230° Southwest 334 384 28,000  Level New York Center
05:49PM 41.1300 -73.8397 232° Southwest 334 384 28,000 -300 Level New York Center
05:50PM 41.0756 -73.9364 233° Southwest 334 384 27,500 -780 Descending New York Center
05:51PM 41.0189 -74.0244 230° Southwest 333 383 26,500 -780 Descending New York Center
05:52PM 40.9642 -74.1181 232° Southwest 333 383 26,000 -300 Descending New York Center
05:53PM 40.9056 -74.2058 229° Southwest 333 383 26,000  Level New York Center
05:54PM 40.8525 -74.3017 234° Southwest 328 377 26,000  Level New York Center
05:55PM 40.7936 -74.3947 230° Southwest 328 377 26,000  Level New York Center
05:56PM 40.7364 -74.4903 232° Southwest 333 383 26,000 -540 Level New York Center
05:57PM 40.6792 -74.5856 232° Southwest 339 390 25,000 -1,020 Descending New York Center
05:58PM 40.6219 -74.6781 231° Southwest 334 384 24,000 -1,020 Descending New York Center
05:59PM 40.5647 -74.7678 230° Southwest 334 384 23,000 -1,020 Descending New York Center
06:00PM 40.5011 -74.8597 228° Southwest 334 384 22,000 -1,020 Descending New York Center
06:01PM 40.4378 -74.9486 227° Southwest 339 390 21,000 -1,320 Descending New York Center
06:02PM 40.3719 -75.0400 227° Southwest 344 396 19,500 -1,560 Descending New York Center
06:03PM 40.3014 -75.1389 227° Southwest 344 396 18,000 -780 Descending New York Center
06:04PM 40.2378 -75.2300 228° Southwest 344 396 18,000  Level New York Center
06:05PM 40.1694 -75.3261 227° Southwest 357 411 18,000  Level New York Center
06:06PM 40.1100 -75.4064 226° Southwest 357 411 18,000  Level New York Center
06:07PM 40.0372 -75.5072 227° Southwest 357 411 18,000  Level New York Center
06:08PM 39.9756 -75.5900 226° Southwest 357 411 18,000  Level New York Center
06:09PM 39.9064 -75.6961 230° Southwest 357 411 18,000  Level New York Center
06:10PM 39.8547 -75.7869 233° Southwest 357 411 18,000  Level New York Center
06:11PM 39.7856 -75.8928 230° Southwest 357 411 18,000  Level New York Center
06:12PM 39.7292 -75.9861 232° Southwest 362 417 18,000  Level New York Center
06:13PM 39.6600 -76.0914 230° Southwest 362 417 18,000 -780 Level New York Center
06:14PM 39.6017 -76.1814 230° Southwest 362 417 16,500 -1,860 Descending New York Center
06:15PM 39.5383 -76.2842 231° Southwest 356 410 14,400 -1,980 Descending New York Center
06:16PM 39.4667 -76.3833 227° Southwest 333 383 12,500 -1,200 Descending Potomac TRACON
06:17PM 39.4000 -76.4667 224° Southwest 329 379 12,000 -300 Descending Potomac TRACON
06:18PM 39.3333 -76.5333 218° Southwest 330 380 12,000 -240 Level Potomac TRACON
06:19PM 39.2500 -76.6000 212° Southwest 333 383 11,600 -1,020 Descending Potomac TRACON
06:20PM 39.1833 -76.6667 218° Southwest 315 362 10,000 -840 Descending Potomac TRACON
06:21PM 39.1167 -76.7333 218° Southwest 302 348 10,000  Level Potomac TRACON
06:22PM 39.0500 -76.8000 218° Southwest 307 353 10,000 -600 Level Potomac TRACON
06:23PM 39.0000 -76.8667 226° Southwest 267 307 8,900 -1,500 Descending Potomac TRACON
06:24PM 38.9333 -76.9333 218° Southwest 265 305 7,100 -1,500 Descending Potomac TRACON
06:25PM 38.8667 -76.9500 191° South 272 313 6,000 -1,140 Descending Potomac TRACON
06:26PM 38.8000 -76.9500 180° South 236 272 4,900 -1,020 Descending Potomac TRACON
06:27PM 38.7333 -76.9333 169° South 210 242 4,000 -720 Descending Potomac TRACON
06:28PM 38.6833 -76.9333 180° South 191 220 3,500 -540 Descending Potomac TRACON
06:29PM 38.6667 -77.0000 252° West 164 189 3,000 -540 Descending Potomac TRACON